Time;durP1;ratioP1;P1;durP2;ratioP2;P2;SDS_P1;SDS_P2;PMS_P1;PMS_P2;Temp;Humidity;BMP_temperature;BMP_pressure;BME280_temperature;BME280_humidity;BME280_pressure;Samples;Min_cycle;Max_cycle;Signal;HPM_P1;HPM_P2
2023/07/29 00:00:07;;;;;;;1.60;1.40;;;24.20;59.60;;;;;;5130949;27;45491;-70
2023/07/29 00:02:33;;;;;;;1.00;1.00;;;24.20;59.50;;;;;;5130898;27;45163;-70
2023/07/29 00:05:02;;;;;;;1.00;0.90;;;24.20;59.70;;;;;;5130603;27;47603;-70
2023/07/29 00:07:29;;;;;;;1.38;1.20;;;24.20;60.20;;;;;;5130537;27;45411;-70
2023/07/29 00:09:56;;;;;;;1.38;1.00;;;24.20;59.70;;;;;;5130561;27;45422;-70
2023/07/29 00:12:23;;;;;;;1.15;1.05;;;24.20;59.60;;;;;;5130747;27;45456;-70
2023/07/29 00:14:50;;;;;;;2.75;1.30;;;24.10;59.50;;;;;;5130085;27;45332;-70
2023/07/29 00:17:16;;;;;;;1.65;1.23;;;24.10;59.50;;;;;;5130376;27;45318;-70
2023/07/29 00:19:43;;;;;;;1.25;1.00;;;24.10;59.50;;;;;;5130443;27;45509;-70
2023/07/29 00:22:11;;;;;;;1.13;1.02;;;24.10;59.40;;;;;;5130776;27;45392;-70
2023/07/29 00:24:38;;;;;;;1.35;0.98;;;24.10;59.40;;;;;;5129723;27;45306;-70
2023/07/29 00:27:06;;;;;;;1.38;1.08;;;24.10;59.40;;;;;;5130605;27;45225;-70
2023/07/29 00:29:32;;;;;;;1.63;1.20;;;24.10;59.40;;;;;;5130304;27;45260;-70
2023/07/29 00:31:59;;;;;;;1.30;1.20;;;24.10;60.00;;;;;;5130376;27;45371;-70
2023/07/29 00:34:26;;;;;;;1.42;1.30;;;24.10;59.40;;;;;;5130122;27;46558;-70
2023/07/29 00:36:53;;;;;;;1.08;0.93;;;24.10;59.30;;;;;;5130131;27;45225;-70
2023/07/29 00:39:22;;;;;;;1.27;1.17;;;24.10;59.20;;;;;;5129414;27;45288;-70
2023/07/29 00:41:49;;;;;;;1.00;1.00;;;24.10;59.20;;;;;;5129658;27;45530;-70
2023/07/29 00:44:16;;;;;;;1.85;1.10;;;24.10;59.20;;;;;;5129818;27;45418;-70
2023/07/29 00:46:43;;;;;;;1.42;1.13;;;24.10;59.20;;;;;;5130152;27;45429;-70
2023/07/29 00:49:09;;;;;;;1.55;1.10;;;24.00;59.20;;;;;;5130006;27;45409;-70
2023/07/29 00:51:36;;;;;;;1.35;1.23;;;24.10;59.20;;;;;;5130042;27;45276;-70
2023/07/29 00:54:03;;;;;;;2.03;1.27;;;24.10;59.80;;;;;;5129556;27;46685;-70
2023/07/29 00:56:31;;;;;;;1.58;1.17;;;24.10;59.20;;;;;;5126026;27;45328;-70
2023/07/29 00:59:01;;;;;;;1.15;0.77;;;24.00;59.10;;;;;;5129882;27;45380;-70
2023/07/29 01:01:28;;;;;;;1.10;1.00;;;24.00;59.00;;;;;;5130092;27;45303;-70
2023/07/29 01:03:55;;;;;;;2.25;1.30;;;24.00;59.10;;;;;;5129415;27;45372;-70
2023/07/29 01:06:24;;;;;;;1.02;0.93;;;24.00;59.10;;;;;;5129616;27;45379;-70
2023/07/29 01:08:55;;;;;;;1.35;1.00;;;24.00;59.00;;;;;;5129752;27;45162;-70
2023/07/29 01:11:30;;;;;;;1.10;1.00;;;24.00;59.00;;;;;;5129923;27;45382;-70
2023/07/29 01:14:01;;;;;;;1.13;1.00;;;24.00;59.00;;;;;;5129204;27;45380;-70
2023/07/29 01:16:31;;;;;;;1.17;1.02;;;24.00;59.00;;;;;;5126887;27;45337;-70
2023/07/29 01:18:58;;;;;;;3.13;1.23;;;24.00;59.00;;;;;;5129662;27;45453;-70
2023/07/29 01:21:25;;;;;;;1.08;1.02;;;24.00;59.00;;;;;;5130071;27;45408;-70
2023/07/29 01:23:57;;;;;;;1.42;1.13;;;24.00;59.00;;;;;;5129094;27;46738;-70
2023/07/29 01:26:24;;;;;;;1.17;1.00;;;24.00;59.00;;;;;;5129343;27;45383;-70
2023/07/29 01:28:51;;;;;;;1.17;1.02;;;23.90;58.90;;;;;;5129488;27;45385;-70
2023/07/29 01:31:23;;;;;;;1.35;1.10;;;23.90;58.90;;;;;;5129399;27;45171;-69
2023/07/29 01:33:52;;;;;;;1.52;1.10;;;23.90;58.90;;;;;;5128268;27;46705;-69
2023/07/29 01:36:22;;;;;;;1.17;1.08;;;23.90;58.90;;;;;;5128410;27;45382;-70
2023/07/29 01:38:49;;;;;;;1.02;1.00;;;23.90;58.90;;;;;;5129354;27;45382;-70
2023/07/29 01:41:17;;;;;;;2.15;1.20;;;23.90;58.80;;;;;;5129297;27;45255;-70
2023/07/29 01:43:44;;;;;;;1.48;1.08;;;23.90;58.90;;;;;;5128823;27;45401;-70
2023/07/29 01:46:12;;;;;;;0.98;0.85;;;23.90;58.90;;;;;;5128853;27;45324;-70
2023/07/29 01:48:38;;;;;;;1.33;1.15;;;23.90;58.80;;;;;;5129121;27;45415;-70
2023/07/29 01:51:06;;;;;;;1.90;1.20;;;23.90;58.80;;;;;;5129208;27;45252;-70
2023/07/29 01:53:32;;;;;;;1.50;1.30;;;23.90;58.80;;;;;;5128174;27;46704;-70
2023/07/29 01:55:59;;;;;;;1.10;1.10;;;23.80;58.80;;;;;;5128657;27;45319;-70
2023/07/29 01:58:27;;;;;;;1.10;1.00;;;23.80;58.80;;;;;;5128986;27;45259;-70
2023/07/29 02:00:54;;;;;;;0.80;0.80;;;23.80;58.70;;;;;;5128994;27;45398;-70
2023/07/29 02:03:21;;;;;;;1.38;1.15;;;23.80;58.80;;;;;;5128490;27;45347;-70
2023/07/29 02:05:48;;;;;;;1.30;1.20;;;23.80;58.80;;;;;;5128622;27;45261;-70
2023/07/29 02:08:15;;;;;;;1.05;0.93;;;23.80;58.70;;;;;;5128734;27;45374;-70
2023/07/29 02:10:44;;;;;;;1.38;0.90;;;23.80;58.70;;;;;;5128775;27;45422;-70
2023/07/29 02:13:12;;;;;;;1.30;1.10;;;23.80;58.60;;;;;;5128361;27;45280;-70
2023/07/29 02:15:40;;;;;;;2.50;1.02;;;23.80;59.20;;;;;;5128154;27;45374;-70
2023/07/29 02:18:07;;;;;;;2.38;1.08;;;23.80;58.70;;;;;;5128674;27;45500;-70
2023/07/29 02:20:34;;;;;;;1.33;1.02;;;23.80;58.60;;;;;;5128326;27;45316;-69
2023/07/29 02:23:01;;;;;;;1.27;1.17;;;23.80;58.60;;;;;;5127736;27;45558;-70
2023/07/29 02:25:27;;;;;;;1.52;1.05;;;23.80;58.60;;;;;;5128379;27;45323;-69
2023/07/29 02:27:54;;;;;;;2.08;1.40;;;23.80;58.60;;;;;;5128371;27;45326;-70
2023/07/29 02:30:22;;;;;;;0.93;0.90;;;23.80;58.60;;;;;;5128516;27;45344;-70
2023/07/29 02:32:50;;;;;;;1.17;1.08;;;23.80;59.10;;;;;;5127853;27;45475;-70
2023/07/29 02:35:17;;;;;;;1.58;1.20;;;23.80;58.50;;;;;;5128034;27;45262;-70
2023/07/29 02:37:44;;;;;;;1.45;1.02;;;23.80;58.40;;;;;;5128177;27;45254;-70
2023/07/29 02:40:12;;;;;;;1.35;1.00;;;23.80;58.40;;;;;;5128552;27;45559;-70
2023/07/29 02:42:38;;;;;;;1.33;1.23;;;23.80;58.40;;;;;;5127953;27;45497;-70
2023/07/29 02:45:09;;;;;;;1.95;1.08;;;23.80;58.40;;;;;;5128050;27;45316;-70
2023/07/29 02:47:36;;;;;;;1.63;1.10;;;23.80;58.40;;;;;;5128295;27;45385;-70
2023/07/29 02:50:05;;;;;;;2.63;1.05;;;23.80;58.30;;;;;;5128127;27;45254;-70
2023/07/29 02:52:32;;;;;;;1.25;1.13;;;23.80;58.30;;;;;;5127533;27;46983;-70
2023/07/29 02:54:59;;;;;;;1.58;1.27;;;23.80;58.30;;;;;;5127687;27;45351;-70
2023/07/29 02:57:25;;;;;;;1.15;1.00;;;23.80;58.30;;;;;;5128026;27;45324;-70
2023/07/29 02:59:52;;;;;;;1.25;1.15;;;23.80;58.30;;;;;;5128083;27;45376;-70
2023/07/29 03:02:19;;;;;;;1.60;0.80;;;23.70;58.20;;;;;;5127722;27;45461;-70
2023/07/29 03:04:46;;;;;;;1.65;1.08;;;23.70;58.20;;;;;;5127684;27;45289;-70
2023/07/29 03:07:14;;;;;;;1.75;1.23;;;23.80;58.20;;;;;;5127187;27;45314;-70
2023/07/29 03:09:41;;;;;;;1.00;0.95;;;23.70;58.20;;;;;;5127967;27;45383;-70
2023/07/29 03:12:08;;;;;;;1.27;1.17;;;23.70;58.10;;;;;;5127613;27;46264;-70
2023/07/29 03:14:35;;;;;;;1.88;1.05;;;23.70;58.10;;;;;;5127427;27;45351;-70
2023/07/29 03:17:04;;;;;;;1.58;1.00;;;23.70;58.00;;;;;;5127603;27;45325;-70
2023/07/29 03:19:31;;;;;;;2.60;1.00;;;23.70;58.00;;;;;;5127465;27;45272;-70
2023/07/29 03:21:57;;;;;;;0.75;0.73;;;23.70;58.00;;;;;;5127455;27;46922;-70
2023/07/29 03:24:26;;;;;;;1.52;1.05;;;23.70;58.00;;;;;;5127416;27;45305;-70
2023/07/29 03:26:52;;;;;;;0.90;0.90;;;23.70;58.00;;;;;;5127538;27;45227;-70
2023/07/29 03:29:19;;;;;;;1.10;0.90;;;23.70;58.00;;;;;;5127675;27;45383;-70
2023/07/29 03:31:46;;;;;;;1.13;1.00;;;23.70;58.00;;;;;;5127285;27;45481;-70
2023/07/29 03:34:13;;;;;;;1.00;0.90;;;23.70;57.90;;;;;;5127034;27;46397;-70
2023/07/29 03:36:40;;;;;;;1.27;0.95;;;23.70;57.90;;;;;;5127574;27;45303;-70
2023/07/29 03:39:07;;;;;;;1.45;1.00;;;23.70;57.90;;;;;;5127893;27;45437;-70
2023/07/29 03:41:35;;;;;;;1.20;1.00;;;23.70;57.90;;;;;;5124482;27;45314;-70
2023/07/29 03:44:02;;;;;;;1.30;1.20;;;23.70;57.90;;;;;;5127206;27;45331;-70
2023/07/29 03:46:29;;;;;;;1.20;0.80;;;23.70;57.90;;;;;;5127505;27;45362;-70
2023/07/29 03:48:56;;;;;;;1.55;1.00;;;23.70;57.90;;;;;;5127576;27;45228;-69
2023/07/29 03:51:24;;;;;;;2.28;1.20;;;23.70;57.80;;;;;;5126488;27;45474;-70
2023/07/29 03:53:51;;;;;;;1.00;0.90;;;23.70;57.80;;;;;;5126460;27;45388;-70
2023/07/29 03:56:18;;;;;;;0.73;0.73;;;23.70;57.80;;;;;;5127139;27;45338;-70
2023/07/29 03:58:47;;;;;;;1.30;1.15;;;23.70;57.80;;;;;;5127286;27;45394;-70
2023/07/29 04:01:14;;;;;;;1.30;0.98;;;23.70;57.80;;;;;;5126843;27;46977;-70
2023/07/29 04:03:41;;;;;;;1.15;0.90;;;23.70;57.80;;;;;;5127048;27;45628;-70
2023/07/29 04:06:08;;;;;;;0.90;0.90;;;23.70;57.80;;;;;;5127048;27;45299;-70
2023/07/29 04:08:35;;;;;;;1.52;0.82;;;23.70;57.80;;;;;;5127676;27;45405;-70
2023/07/29 04:11:02;;;;;;;0.88;0.88;;;23.70;57.80;;;;;;5126921;27;46366;-70
2023/07/29 04:13:28;;;;;;;1.10;1.00;;;23.60;57.70;;;;;;5126825;27;45334;-70
2023/07/29 04:15:57;;;;;;;1.05;0.98;;;23.70;57.70;;;;;;5127017;27;45353;-70
2023/07/29 04:18:23;;;;;;;0.88;0.88;;;23.70;57.80;;;;;;5127039;27;45413;-70
2023/07/29 04:20:50;;;;;;;1.20;1.02;;;23.70;57.70;;;;;;5126779;27;45442;-69
2023/07/29 04:23:17;;;;;;;1.15;0.90;;;23.60;57.70;;;;;;5126606;27;45410;-70
2023/07/29 04:25:44;;;;;;;0.98;0.77;;;23.70;57.70;;;;;;5126759;27;45255;-70
2023/07/29 04:28:11;;;;;;;1.33;1.02;;;23.70;57.70;;;;;;5127008;27;45405;-70
2023/07/29 04:30:37;;;;;;;1.83;1.05;;;23.70;57.70;;;;;;5127083;27;46327;-70
2023/07/29 04:33:06;;;;;;;1.00;0.90;;;23.70;57.70;;;;;;5130132;27;45484;-70
2023/07/29 04:35:32;;;;;;;0.90;0.90;;;23.60;57.60;;;;;;5129603;27;45247;-68
2023/07/29 04:37:59;;;;;;;0.90;0.90;;;23.60;57.50;;;;;;5130252;27;45483;-70
2023/07/29 04:40:26;;;;;;;1.05;1.00;;;23.60;57.60;;;;;;5129898;27;45538;-70
2023/07/29 04:42:53;;;;;;;1.02;0.90;;;23.60;58.30;;;;;;5130035;27;45294;-70
2023/07/29 04:45:20;;;;;;;0.70;0.70;;;23.60;57.50;;;;;;5129899;27;45373;-70
2023/07/29 04:47:46;;;;;;;1.00;0.90;;;23.60;57.50;;;;;;5130304;27;45499;-70
2023/07/29 04:50:15;;;;;;;0.77;0.77;;;23.60;57.60;;;;;;5129773;27;46495;-70
2023/07/29 04:52:41;;;;;;;0.70;0.70;;;23.60;57.50;;;;;;5129592;27;45242;-70
2023/07/29 04:55:09;;;;;;;0.70;0.70;;;23.60;57.50;;;;;;5129805;27;45311;-70
2023/07/29 04:57:35;;;;;;;1.00;0.82;;;23.60;57.50;;;;;;5130026;27;45368;-70
2023/07/29 05:00:03;;;;;;;1.17;1.08;;;23.60;57.50;;;;;;5129758;27;46591;-70
2023/07/29 05:02:30;;;;;;;0.95;0.95;;;23.60;57.50;;;;;;5129724;27;45354;-70
2023/07/29 05:04:57;;;;;;;0.80;0.80;;;23.60;57.50;;;;;;5129660;27;45282;-70
2023/07/29 05:07:25;;;;;;;0.82;0.70;;;23.60;57.40;;;;;;5129988;27;45314;-70
2023/07/29 05:09:52;;;;;;;1.00;0.90;;;23.60;57.40;;;;;;5129501;27;46639;-69
2023/07/29 05:12:18;;;;;;;1.08;0.98;;;23.60;57.40;;;;;;5129636;27;45277;-70
2023/07/29 05:14:45;;;;;;;1.92;1.00;;;23.60;57.40;;;;;;5129878;27;45341;-70
2023/07/29 05:17:12;;;;;;;0.93;0.93;;;23.60;57.30;;;;;;5129821;27;45625;-70
2023/07/29 05:19:39;;;;;;;0.98;0.93;;;23.60;57.30;;;;;;5128677;27;46376;-70
2023/07/29 05:22:06;;;;;;;1.13;1.00;;;23.60;57.30;;;;;;5129285;27;45367;-69
2023/07/29 05:24:34;;;;;;;0.70;0.70;;;23.60;57.30;;;;;;5129422;27;45327;-70
2023/07/29 05:27:01;;;;;;;1.00;0.90;;;23.60;57.30;;;;;;5129710;27;45348;-70
2023/07/29 05:29:27;;;;;;;1.00;0.90;;;23.60;57.30;;;;;;5129116;27;46400;-70
2023/07/29 05:31:54;;;;;;;1.48;0.90;;;23.60;57.20;;;;;;5129230;27;45315;-70
2023/07/29 05:34:21;;;;;;;1.15;1.00;;;23.70;57.30;;;;;;5129190;27;45388;-70
2023/07/29 05:36:48;;;;;;;0.80;0.80;;;23.70;57.30;;;;;;5129464;27;45369;-69
2023/07/29 05:39:15;;;;;;;1.33;0.95;;;23.70;57.20;;;;;;5129039;27;46383;-70
2023/07/29 05:41:43;;;;;;;0.85;0.80;;;23.70;57.00;;;;;;5128611;27;45125;-70
2023/07/29 05:44:10;;;;;;;1.17;1.08;;;23.70;57.10;;;;;;5129244;27;45400;-70
2023/07/29 05:46:37;;;;;;;0.77;0.70;;;23.70;57.00;;;;;;5129245;27;45407;-70
2023/07/29 05:49:03;;;;;;;1.60;1.00;;;23.70;57.00;;;;;;5128872;27;46501;-70
2023/07/29 05:51:30;;;;;;;1.00;1.00;;;23.70;57.20;;;;;;5129481;27;45271;-70
2023/07/29 05:53:57;;;;;;;1.33;0.90;;;23.70;56.90;;;;;;5128546;27;45279;-70
2023/07/29 05:56:24;;;;;;;0.85;0.73;;;23.70;56.90;;;;;;5129057;27;45377;-69
2023/07/29 05:58:52;;;;;;;0.90;0.90;;;23.70;56.90;;;;;;5128676;27;46690;-70
2023/07/29 06:01:21;;;;;;;0.88;0.82;;;23.70;56.90;;;;;;5128769;27;45252;-70
2023/07/29 06:03:48;;;;;;;1.02;0.75;;;23.70;56.80;;;;;;5128005;27;45259;-69
2023/07/29 06:06:14;;;;;;;0.98;0.75;;;23.70;56.70;;;;;;5128726;27;45391;-70
2023/07/29 06:08:41;;;;;;;0.80;0.80;;;23.70;56.70;;;;;;5128401;27;45339;-70
2023/07/29 06:11:08;;;;;;;1.02;0.80;;;23.70;56.80;;;;;;5128587;27;45342;-69
2023/07/29 06:13:35;;;;;;;1.00;0.70;;;23.80;57.30;;;;;;5128572;27;45200;-69
2023/07/29 06:16:03;;;;;;;1.23;0.90;;;23.70;56.70;;;;;;5128624;27;45423;-70
2023/07/29 06:18:30;;;;;;;1.00;0.93;;;23.70;56.70;;;;;;5128449;27;46677;-70
2023/07/29 06:20:57;;;;;;;0.73;0.73;;;23.80;56.70;;;;;;5128300;27;45379;-69
2023/07/29 06:23:24;;;;;;;1.10;1.00;;;23.80;56.70;;;;;;5128408;27;45337;-69
2023/07/29 06:25:51;;;;;;;1.30;1.00;;;23.80;56.60;;;;;;5128516;27;45414;-70
2023/07/29 06:28:18;;;;;;;0.65;0.65;;;23.80;56.70;;;;;;5128235;27;45263;-69
2023/07/29 06:30:44;;;;;;;0.90;0.90;;;23.80;56.80;;;;;;5128269;27;45426;-69
2023/07/29 06:33:13;;;;;;;1.00;0.90;;;23.80;56.60;;;;;;5128358;27;45369;-69
2023/07/29 06:35:39;;;;;;;0.82;0.82;;;23.80;56.50;;;;;;5128361;27;45448;-70
2023/07/29 06:38:06;;;;;;;1.00;0.95;;;23.80;56.60;;;;;;5128058;27;46414;-69
2023/07/29 06:40:33;;;;;;;1.30;1.08;;;23.80;56.60;;;;;;5125423;27;45288;-70
2023/07/29 06:43:00;;;;;;;0.82;0.82;;;23.80;56.60;;;;;;5128611;27;45390;-70
2023/07/29 06:45:27;;;;;;;1.33;0.88;;;23.80;56.70;;;;;;5128190;27;45380;-69
2023/07/29 06:47:53;;;;;;;0.73;0.73;;;23.80;56.70;;;;;;5127455;27;45460;-69
2023/07/29 06:50:22;;;;;;;1.10;1.00;;;23.80;56.70;;;;;;5127869;27;45394;-69
2023/07/29 06:52:49;;;;;;;1.50;0.90;;;23.80;56.70;;;;;;5127363;27;45271;-70
2023/07/29 06:55:15;;;;;;;1.10;0.77;;;23.80;56.80;;;;;;5127399;27;45431;-69
2023/07/29 06:57:42;;;;;;;1.25;1.10;;;23.80;57.30;;;;;;5127470;27;45628;-70
2023/07/29 07:00:10;;;;;;;1.30;0.85;;;23.80;56.70;;;;;;5127873;27;45385;-70
2023/07/29 07:02:37;;;;;;;1.00;1.00;;;23.80;56.70;;;;;;5128002;27;45358;-70
2023/07/29 07:05:04;;;;;;;0.80;0.80;;;23.80;57.20;;;;;;5127909;27;45417;-70
2023/07/29 07:07:32;;;;;;;1.00;0.88;;;23.80;56.50;;;;;;5127639;27;45469;-69
2023/07/29 07:09:59;;;;;;;3.08;1.02;;;23.80;56.60;;;;;;5127641;27;45311;-69
2023/07/29 07:12:26;;;;;;;0.77;0.77;;;23.80;56.60;;;;;;5127784;27;45275;-69
2023/07/29 07:14:53;;;;;;;1.00;1.00;;;23.80;57.10;;;;;;5127917;27;45392;-70
2023/07/29 07:17:20;;;;;;;0.80;0.80;;;23.90;56.60;;;;;;5127393;27;46679;-70
2023/07/29 07:19:47;;;;;;;0.77;0.70;;;23.90;56.50;;;;;;5127367;27;45323;-70
2023/07/29 07:22:14;;;;;;;2.10;0.82;;;23.90;56.60;;;;;;5127613;27;45365;-70
2023/07/29 07:24:42;;;;;;;2.08;1.08;;;23.80;56.50;;;;;;5127805;27;45365;-70
2023/07/29 07:27:09;;;;;;;1.35;1.00;;;23.80;57.10;;;;;;5127544;27;45303;-69
2023/07/29 07:29:36;;;;;;;0.80;0.80;;;23.90;56.50;;;;;;5127523;27;45384;-70
2023/07/29 07:32:03;;;;;;;1.00;0.90;;;23.90;56.90;;;;;;5126967;27;45420;-69
2023/07/29 07:34:30;;;;;;;0.80;0.80;;;23.90;56.40;;;;;;5127479;27;45542;-70
2023/07/29 07:36:56;;;;;;;0.70;0.70;;;23.90;56.40;;;;;;5127357;27;46435;-70
2023/07/29 07:39:23;;;;;;;1.92;1.00;;;23.90;56.40;;;;;;5127057;27;45275;-70
2023/07/29 07:41:51;;;;;;;1.38;0.68;;;24.00;56.30;;;;;;5127319;27;45268;-69
2023/07/29 07:44:19;;;;;;;2.13;0.80;;;24.00;56.30;;;;;;5127509;27;45301;-69
2023/07/29 07:46:46;;;;;;;0.85;0.73;;;24.00;56.20;;;;;;5126840;27;45411;-68
2023/07/29 07:49:13;;;;;;;2.55;1.02;;;24.00;56.10;;;;;;5127000;27;45381;-69
2023/07/29 07:51:40;;;;;;;1.70;1.02;;;24.00;55.90;;;;;;5127008;27;45382;-69
2023/07/29 07:54:07;;;;;;;1.00;1.00;;;24.10;56.00;;;;;;5126904;27;45383;-69
2023/07/29 07:56:34;;;;;;;1.00;0.80;;;24.10;56.50;;;;;;5126647;27;46651;-69
2023/07/29 07:59:02;;;;;;;2.50;0.75;;;24.10;55.90;;;;;;5127196;27;45377;-69
2023/07/29 08:01:28;;;;;;;1.50;0.98;;;24.10;55.80;;;;;;5126718;27;45274;-69
2023/07/29 08:03:55;;;;;;;1.75;0.93;;;24.10;55.80;;;;;;5127048;27;45264;-69
2023/07/29 08:06:22;;;;;;;1.42;0.98;;;24.20;55.70;;;;;;5129863;27;45538;-68
2023/07/29 08:08:49;;;;;;;1.65;0.77;;;24.20;56.00;;;;;;5130165;27;45367;-68
2023/07/29 08:11:16;;;;;;;1.33;0.73;;;24.20;56.10;;;;;;5130297;27;45270;-69
2023/07/29 08:13:43;;;;;;;1.60;1.00;;;24.30;56.10;;;;;;5130508;27;45335;-68
2023/07/29 08:16:11;;;;;;;1.73;1.02;;;24.30;56.20;;;;;;5129449;27;45366;-69
2023/07/29 08:18:38;;;;;;;0.85;0.77;;;24.40;56.10;;;;;;5129969;27;45380;-68
2023/07/29 08:21:05;;;;;;;2.53;1.10;;;24.40;56.10;;;;;;5130069;27;45376;-68
2023/07/29 08:23:32;;;;;;;1.45;1.10;;;24.40;55.80;;;;;;5130029;27;45536;-69
2023/07/29 08:26:01;;;;;;;2.78;0.85;;;24.40;56.00;;;;;;5129710;27;45305;-69
2023/07/29 08:28:28;;;;;;;0.88;0.88;;;24.40;56.20;;;;;;5129673;27;45370;-69
2023/07/29 08:30:55;;;;;;;1.63;0.80;;;24.50;56.20;;;;;;5129993;27;45323;-68
2023/07/29 08:33:23;;;;;;;1.00;0.80;;;24.50;56.30;;;;;;5130389;27;45313;-68
2023/07/29 08:35:50;;;;;;;0.85;0.80;;;24.50;56.30;;;;;;5129933;27;47253;-69
2023/07/29 08:38:17;;;;;;;1.13;0.90;;;24.50;56.30;;;;;;5128277;27;45373;-69
2023/07/29 08:40:46;;;;;;;1.63;1.00;;;24.50;56.20;;;;;;5124129;27;45482;-70
2023/07/29 08:43:13;;;;;;;2.78;1.08;;;24.50;56.40;;;;;;5126938;27;45525;-70
2023/07/29 08:45:40;;;;;;;1.85;1.10;;;24.60;56.70;;;;;;5129639;27;45511;-69
2023/07/29 08:48:08;;;;;;;2.47;0.90;;;24.60;57.30;;;;;;5124099;27;45453;-70
2023/07/29 08:50:36;;;;;;;2.03;1.30;;;24.60;57.30;;;;;;5125398;27;45383;-69
2023/07/29 08:53:04;;;;;;;3.15;1.30;;;24.70;57.50;;;;;;5115055;27;45370;-69
2023/07/29 08:55:31;;;;;;;1.38;1.13;;;24.70;57.70;;;;;;5108742;27;46389;-69
2023/07/29 08:57:58;;;;;;;5.82;1.33;;;24.70;57.80;;;;;;5108696;27;45424;-68
2023/07/29 09:00:25;;;;;;;1.23;1.00;;;24.80;58.00;;;;;;5108748;27;45229;-66
2023/07/29 09:02:52;;;;;;;5.57;1.33;;;24.80;58.10;;;;;;5108107;27;45314;-67
2023/07/29 09:05:19;;;;;;;3.88;1.15;;;24.90;58.40;;;;;;5108286;27;46400;-67
2023/07/29 09:07:47;;;;;;;6.28;1.85;;;24.90;58.50;;;;;;5108575;27;45216;-68
2023/07/29 09:10:15;;;;;;;8.50;1.65;;;24.90;58.60;;;;;;5109014;27;45311;-68
2023/07/29 09:12:42;;;;;;;2.63;1.10;;;25.00;58.90;;;;;;5108067;27;45552;-69
2023/07/29 09:15:09;;;;;;;6.20;2.15;;;25.00;59.00;;;;;;5108830;27;46582;-68
2023/07/29 09:17:36;;;;;;;5.53;1.48;;;25.00;58.90;;;;;;5107139;27;45252;-68
2023/07/29 09:20:04;;;;;;;4.07;1.52;;;25.00;59.00;;;;;;5114184;27;45412;-68
2023/07/29 09:22:31;;;;;;;4.28;1.63;;;25.10;59.30;;;;;;5129311;27;45491;-69
2023/07/29 09:24:59;;;;;;;2.83;1.50;;;25.10;59.70;;;;;;5128296;27;47343;-69
2023/07/29 09:27:26;;;;;;;2.88;1.45;;;25.10;59.60;;;;;;5129171;27;46095;-68
2023/07/29 09:29:53;;;;;;;3.78;1.55;;;25.10;59.60;;;;;;5128804;27;45425;-69
2023/07/29 09:32:21;;;;;;;6.05;1.60;;;25.20;59.70;;;;;;5129160;27;45458;-68
2023/07/29 09:34:48;;;;;;;8.43;1.90;;;25.20;59.80;;;;;;5128846;27;46654;-67
2023/07/29 09:37:18;;;;;;;3.20;1.77;;;25.20;59.70;;;;;;5127228;27;45310;-69
2023/07/29 09:39:48;;;;;;;5.13;2.25;;;25.30;60.00;;;;;;5119527;27;45417;-69
2023/07/29 09:42:20;;;;;;;4.15;1.80;;;25.30;60.10;;;;;;5127821;27;45575;-70
2023/07/29 09:44:47;;;;;;;4.38;1.73;;;25.30;60.10;;;;;;5127300;27;45823;-70
2023/07/29 09:47:21;;;;;;;5.38;1.77;;;25.30;60.00;;;;;;5127595;27;45321;-68
2023/07/29 09:49:48;;;;;;;5.40;1.73;;;25.40;60.10;;;;;;5126901;27;45519;-67
2023/07/29 09:52:16;;;;;;;8.25;1.85;;;25.40;60.00;;;;;;5122973;27;45876;-71
2023/07/29 09:54:43;;;;;;;6.95;1.98;;;25.40;59.80;;;;;;5126352;27;46409;-71
2023/07/29 09:57:11;;;;;;;6.50;1.92;;;25.50;60.00;;;;;;5128315;27;45331;-72
2023/07/29 09:59:39;;;;;;;4.35;1.50;;;25.60;59.90;;;;;;5128075;27;45340;-71
2023/07/29 10:02:06;;;;;;;4.82;1.85;;;25.60;59.80;;;;;;5119468;27;45546;-70
2023/07/29 10:04:33;;;;;;;7.72;1.90;;;25.60;60.00;;;;;;5126316;27;46549;-71
2023/07/29 10:06:59;;;;;;;3.00;1.85;;;25.60;60.10;;;;;;5127024;27;45467;-69
2023/07/29 10:09:26;;;;;;;4.68;1.55;;;25.60;60.00;;;;;;5128424;27;45280;-69
2023/07/29 10:11:53;;;;;;;7.35;2.03;;;25.70;60.20;;;;;;5128191;27;45230;-70
2023/07/29 10:14:20;;;;;;;4.88;1.73;;;25.70;59.90;;;;;;5124710;27;48467;-70
2023/07/29 10:16:49;;;;;;;5.68;2.20;;;25.70;59.90;;;;;;5128094;27;45244;-70
2023/07/29 10:19:18;;;;;;;5.57;1.92;;;25.80;60.00;;;;;;5128568;27;45458;-68
2023/07/29 10:21:45;;;;;;;5.25;1.58;;;25.80;60.00;;;;;;5125899;27;45403;-70
2023/07/29 10:24:15;;;;;;;5.55;1.65;;;25.80;60.00;;;;;;5117775;27;47307;-68
2023/07/29 10:26:42;;;;;;;4.18;1.90;;;25.80;59.80;;;;;;5123534;27;45360;-70
2023/07/29 10:29:09;;;;;;;8.35;2.40;;;25.90;60.00;;;;;;5107399;27;45121;-69
2023/07/29 10:31:36;;;;;;;5.65;2.03;;;25.90;60.00;;;;;;5117823;27;45439;-69
2023/07/29 10:34:04;;;;;;;4.28;2.10;;;25.90;60.00;;;;;;5127247;27;46369;-69
2023/07/29 10:36:31;;;;;;;3.42;1.75;;;26.00;60.00;;;;;;5127983;27;45416;-69
2023/07/29 10:38:57;;;;;;;6.75;1.83;;;26.00;59.90;;;;;;5127301;27;45512;-69
2023/07/29 10:41:24;;;;;;;4.47;1.90;;;26.00;59.80;;;;;;5127289;27;45237;-68
2023/07/29 10:43:51;;;;;;;6.30;1.80;;;26.00;59.80;;;;;;5124771;27;45615;-70
2023/07/29 10:46:18;;;;;;;3.90;1.73;;;26.10;59.80;;;;;;5128372;27;45267;-69
2023/07/29 10:48:52;;;;;;;4.28;1.60;;;26.10;59.70;;;;;;5128034;27;45462;-70
2023/07/29 10:51:32;;;;;;;7.50;1.95;;;26.20;59.80;;;;;;5128294;27;45238;-69
2023/07/29 10:53:59;;;;;;;3.70;1.50;;;26.20;59.70;;;;;;5124482;27;45485;-69
2023/07/29 10:56:28;;;;;;;4.07;1.73;;;26.30;59.70;;;;;;5125095;27;45263;-70
2023/07/29 10:58:57;;;;;;;4.00;2.03;;;26.30;59.60;;;;;;5127573;27;45539;-71
2023/07/29 11:01:28;;;;;;;1.50;1.40;;;26.30;59.40;;;;;;5116451;27;45305;-70
2023/07/29 11:04:26;;;;;;;5.15;1.92;;;26.30;59.40;;;;;;5124293;27;45670;-70
2023/07/29 11:07:26;;;;;;;3.17;1.67;;;26.30;59.40;;;;;;5128105;27;45332;-69
2023/07/29 11:10:00;;;;;;;4.10;1.90;;;26.30;59.40;;;;;;5130774;27;45340;-69
2023/07/29 11:12:48;;;;;;;8.30;1.60;;;26.40;59.40;;;;;;5128449;27;45277;-68
2023/07/29 11:15:20;;;;;;;2.33;1.27;;;26.40;59.20;;;;;;5118865;27;45394;-69
2023/07/29 11:17:47;;;;;;;2.00;1.70;;;26.40;59.10;;;;;;5127672;27;45274;-69
2023/07/29 11:20:14;;;;;;;2.25;1.80;;;26.40;58.90;;;;;;5128360;27;45385;-69
2023/07/29 11:22:42;;;;;;;3.08;1.85;;;26.40;58.60;;;;;;5129435;27;45268;-69
2023/07/29 11:25:10;;;;;;;4.07;1.50;;;26.40;58.50;;;;;;5128089;27;46165;-70
2023/07/29 11:27:37;;;;;;;3.47;1.50;;;26.50;58.50;;;;;;5106779;27;45191;-69
2023/07/29 11:30:06;;;;;;;3.88;1.90;;;26.50;58.40;;;;;;5107073;27;45325;-70
2023/07/29 11:32:33;;;;;;;4.78;1.75;;;26.50;58.40;;;;;;5107665;27;45369;-70
2023/07/29 11:35:03;;;;;;;5.85;1.40;;;26.50;58.30;;;;;;5126187;27;46352;-70
2023/07/29 11:37:30;;;;;;;2.05;1.55;;;26.50;56.90;;;;;;5127237;27;45387;-69
2023/07/29 11:39:59;;;;;;;1.95;1.17;;;26.50;56.70;;;;;;5128198;27;45438;-69
2023/07/29 11:42:26;;;;;;;4.55;1.80;;;26.50;56.10;;;;;;5131345;27;45723;-69
2023/07/29 11:44:52;;;;;;;3.28;1.45;;;26.50;56.10;;;;;;5129416;27;46388;-68
2023/07/29 11:47:19;;;;;;;1.42;1.15;;;26.60;56.10;;;;;;5130928;27;45355;-71
2023/07/29 11:49:46;;;;;;;1.65;1.30;;;26.60;55.80;;;;;;5131087;27;45475;-71
2023/07/29 11:52:13;;;;;;;1.63;1.48;;;26.60;55.80;;;;;;5129877;27;45328;-71
2023/07/29 11:54:40;;;;;;;5.25;1.50;;;26.60;56.00;;;;;;5130587;27;45575;-71
2023/07/29 11:57:08;;;;;;;2.28;1.50;;;26.60;55.70;;;;;;5130594;27;45277;-71
2023/07/29 11:59:35;;;;;;;1.70;1.50;;;26.50;55.20;;;;;;5131262;27;45318;-72
2023/07/29 12:02:03;;;;;;;1.83;1.48;;;26.60;55.40;;;;;;5130362;27;45294;-71
2023/07/29 12:04:30;;;;;;;2.50;1.15;;;26.60;55.30;;;;;;5127420;27;45440;-72
2023/07/29 12:06:57;;;;;;;4.15;1.52;;;26.70;55.20;;;;;;5128951;27;45333;-71
2023/07/29 12:09:23;;;;;;;1.38;1.27;;;26.70;54.80;;;;;;5130617;27;45265;-71
2023/07/29 12:11:52;;;;;;;2.70;1.42;;;26.70;54.50;;;;;;5130930;27;45437;-71
2023/07/29 12:14:20;;;;;;;1.30;1.15;;;26.80;54.60;;;;;;5129122;27;45494;-71
2023/07/29 12:16:48;;;;;;;2.70;1.30;;;26.80;54.20;;;;;;5130678;27;45322;-69
2023/07/29 12:19:17;;;;;;;2.47;1.20;;;26.90;54.40;;;;;;5130675;27;45380;-70
2023/07/29 12:21:44;;;;;;;1.85;1.33;;;26.90;54.40;;;;;;5130738;27;45548;-72
2023/07/29 12:24:11;;;;;;;2.35;1.42;;;26.90;54.30;;;;;;5128767;27;45340;-72
2023/07/29 12:26:38;;;;;;;2.75;1.48;;;26.90;54.00;;;;;;5125516;27;45322;-71
2023/07/29 12:29:12;;;;;;;1.30;1.20;;;26.90;54.30;;;;;;5131074;27;45386;-71
2023/07/29 12:31:41;;;;;;;1.45;1.30;;;26.90;54.40;;;;;;5130049;27;45290;-72
2023/07/29 12:34:07;;;;;;;3.40;1.50;;;26.90;55.00;;;;;;5128420;27;46304;-71
2023/07/29 12:36:44;;;;;;;2.13;1.33;;;27.00;56.00;;;;;;5130318;27;45325;-70
2023/07/29 12:39:18;;;;;;;4.03;1.50;;;27.10;56.60;;;;;;5130124;27;45305;-71
2023/07/29 12:41:45;;;;;;;1.45;1.35;;;27.10;55.40;;;;;;5130635;27;45343;-72
2023/07/29 12:44:11;;;;;;;3.13;1.30;;;27.00;55.00;;;;;;5128716;27;46774;-71
2023/07/29 12:46:40;;;;;;;2.30;1.40;;;27.00;54.50;;;;;;5130117;27;45235;-71
2023/07/29 12:49:07;;;;;;;1.40;1.30;;;27.00;54.50;;;;;;5129803;27;45507;-71